sensor_id;sensor_type;location;lat;lon;timestamp;pressure;altitude;pressure_sealevel;temperature;humidity
33506;BME280;19843;51.040;13.782;2024-02-14T00:01:33;100786.75;;;5.75;69.68
33506;BME280;19843;51.040;13.782;2024-02-14T00:04:03;100784.19;;;5.59;70.14
33506;BME280;19843;51.040;13.782;2024-02-14T00:06:35;100785.47;;;5.67;70.60
33506;BME280;19843;51.040;13.782;2024-02-14T00:09:02;100802.66;;;6.07;69.47
33506;BME280;19843;51.040;13.782;2024-02-14T00:11:30;100786.63;;;6.04;69.39
33506;BME280;19843;51.040;13.782;2024-02-14T00:13:58;100782.16;;;6.22;68.70
33506;BME280;19843;51.040;13.782;2024-02-14T00:16:27;100780.84;;;5.81;69.48
33506;BME280;19843;51.040;13.782;2024-02-14T00:18:57;100779.97;;;6.05;68.78
33506;BME280;19843;51.040;13.782;2024-02-14T00:21:25;100779.97;;;6.05;69.34
33506;BME280;19843;51.040;13.782;2024-02-14T00:23:53;100778.88;;;5.82;70.52
33506;BME280;19843;51.040;13.782;2024-02-14T00:26:20;100779.38;;;6.08;69.35
33506;BME280;19843;51.040;13.782;2024-02-14T00:28:48;100781.56;;;6.25;68.65
33506;BME280;19843;51.040;13.782;2024-02-14T00:31:16;100784.72;;;6.37;68.28
33506;BME280;19843;51.040;13.782;2024-02-14T00:33:43;100773.31;;;6.38;67.89
33506;BME280;19843;51.040;13.782;2024-02-14T00:36:14;100781.13;;;6.50;68.04
33506;BME280;19843;51.040;13.782;2024-02-14T00:38:41;100772.22;;;6.53;67.76
33506;BME280;19843;51.040;13.782;2024-02-14T00:41:10;100773.81;;;6.40;67.83
33506;BME280;19843;51.040;13.782;2024-02-14T00:43:38;100766.97;;;6.52;68.37
33506;BME280;19843;51.040;13.782;2024-02-14T00:46:05;100774.34;;;6.43;68.43
33506;BME280;19843;51.040;13.782;2024-02-14T00:48:32;100777.03;;;6.15;69.01
33506;BME280;19843;51.040;13.782;2024-02-14T00:51:00;100775.13;;;6.29;68.74
33506;BME280;19843;51.040;13.782;2024-02-14T00:53:29;100784.00;;;6.45;68.49
33506;BME280;19843;51.040;13.782;2024-02-14T00:55:56;100784.34;;;6.57;67.45
33506;BME280;19843;51.040;13.782;2024-02-14T00:58:24;100781.34;;;6.54;67.40
33506;BME280;19843;51.040;13.782;2024-02-14T01:00:52;100792.72;;;6.85;66.92
33506;BME280;19843;51.040;13.782;2024-02-14T01:03:19;100783.59;;;6.84;66.60
33506;BME280;19843;51.040;13.782;2024-02-14T01:05:47;100783.59;;;6.98;66.22
33506;BME280;19843;51.040;13.782;2024-02-14T01:08:15;100778.66;;;6.49;67.55
33506;BME280;19843;51.040;13.782;2024-02-14T01:10:44;100778.09;;;6.65;67.59
33506;BME280;19843;51.040;13.782;2024-02-14T01:13:13;100772.88;;;6.78;66.85
33506;BME280;19843;51.040;13.782;2024-02-14T01:15:41;100775.06;;;6.95;66.40
33506;BME280;19843;51.040;13.782;2024-02-14T01:18:08;100781.63;;;6.38;67.35
33506;BME280;19843;51.040;13.782;2024-02-14T01:20:37;100776.16;;;6.66;67.00
33506;BME280;19843;51.040;13.782;2024-02-14T01:23:04;100767.03;;;6.79;66.57
33506;BME280;19843;51.040;13.782;2024-02-14T01:25:32;100776.06;;;6.71;66.63
33506;BME280;19843;51.040;13.782;2024-02-14T01:28:01;100783.41;;;6.48;67.65
33506;BME280;19843;51.040;13.782;2024-02-14T01:30:29;100770.72;;;6.75;66.28
33506;BME280;19843;51.040;13.782;2024-02-14T01:32:56;100774.09;;;5.87;69.21
33506;BME280;19843;51.040;13.782;2024-02-14T01:35:24;100779.72;;;6.53;67.76
33506;BME280;19843;51.040;13.782;2024-02-14T01:37:53;100774.88;;;6.58;67.06
33506;BME280;19843;51.040;13.782;2024-02-14T01:40:21;100774.78;;;6.63;66.72
33506;BME280;19843;51.040;13.782;2024-02-14T01:42:48;100777.00;;;6.94;65.81
33506;BME280;19843;51.040;13.782;2024-02-14T01:45:17;100777.09;;;6.75;66.16
33506;BME280;19843;51.040;13.782;2024-02-14T01:47:45;100766.63;;;6.86;65.39
33506;BME280;19843;51.040;13.782;2024-02-14T01:50:12;100767.41;;;6.73;65.69
33506;BME280;19843;51.040;13.782;2024-02-14T01:52:40;100761.47;;;6.79;65.62
33506;BME280;19843;51.040;13.782;2024-02-14T01:55:12;100762.28;;;6.80;65.35
33506;BME280;19843;51.040;13.782;2024-02-14T01:57:40;100759.53;;;6.93;64.72
33506;BME280;19843;51.040;13.782;2024-02-14T02:00:08;100753.88;;;6.85;65.21
33506;BME280;19843;51.040;13.782;2024-02-14T02:02:37;100757.03;;;6.78;65.41
33506;BME280;19843;51.040;13.782;2024-02-14T02:05:06;100752.47;;;6.41;66.16
33506;BME280;19843;51.040;13.782;2024-02-14T02:07:34;100753.09;;;6.52;66.08
33506;BME280;19843;51.040;13.782;2024-02-14T02:10:01;100755.19;;;6.74;65.09
33506;BME280;19843;51.040;13.782;2024-02-14T02:12:30;100749.59;;;6.46;66.35
33506;BME280;19843;51.040;13.782;2024-02-14T02:14:58;100748.63;;;6.70;65.49
33506;BME280;19843;51.040;13.782;2024-02-14T02:17:26;100748.19;;;6.62;65.83
33506;BME280;19843;51.040;13.782;2024-02-14T02:19:55;100749.06;;;6.44;65.37
33506;BME280;19843;51.040;13.782;2024-02-14T02:22:22;100748.47;;;6.47;66.33
33506;BME280;19843;51.040;13.782;2024-02-14T02:24:51;100763.41;;;6.65;65.36
33506;BME280;19843;51.040;13.782;2024-02-14T02:27:19;100757.94;;;6.46;66.24
33506;BME280;19843;51.040;13.782;2024-02-14T02:29:46;100760.78;;;6.55;65.96
33506;BME280;19843;51.040;13.782;2024-02-14T02:32:14;100751.59;;;6.27;66.16
33506;BME280;19843;51.040;13.782;2024-02-14T02:34:42;100749.25;;;6.34;66.34
33506;BME280;19843;51.040;13.782;2024-02-14T02:37:12;100747.84;;;6.36;65.94
33506;BME280;19843;51.040;13.782;2024-02-14T02:39:39;100745.69;;;6.47;66.41
33506;BME280;19843;51.040;13.782;2024-02-14T02:42:08;100751.78;;;5.79;68.39
33506;BME280;19843;51.040;13.782;2024-02-14T02:44:39;100743.06;;;6.23;67.05
33506;BME280;19843;51.040;13.782;2024-02-14T02:47:06;100742.44;;;6.12;67.28
33506;BME280;19843;51.040;13.782;2024-02-14T02:49:34;100741.47;;;6.50;66.42
33506;BME280;19843;51.040;13.782;2024-02-14T02:52:04;100745.19;;;6.59;66.06
33506;BME280;19843;51.040;13.782;2024-02-14T02:54:31;100729.38;;;6.13;67.06
33506;BME280;19843;51.040;13.782;2024-02-14T02:56:59;100741.53;;;6.31;66.81
33506;BME280;19843;51.040;13.782;2024-02-14T02:59:31;100744.47;;;6.21;67.02
33506;BME280;19843;51.040;13.782;2024-02-14T03:01:59;100729.72;;;6.25;66.96
33506;BME280;19843;51.040;13.782;2024-02-14T03:04:26;100721.66;;;6.43;66.12
33506;BME280;19843;51.040;13.782;2024-02-14T03:07:13;100719.31;;;6.63;65.76
33506;BME280;19843;51.040;13.782;2024-02-14T03:09:41;100722.81;;;6.55;65.73
33506;BME280;19843;51.040;13.782;2024-02-14T03:12:09;100729.28;;;6.51;65.41
33506;BME280;19843;51.040;13.782;2024-02-14T03:14:38;100715.00;;;6.71;65.48
33506;BME280;19843;51.040;13.782;2024-02-14T03:17:07;100715.94;;;6.20;67.05
33506;BME280;19843;51.040;13.782;2024-02-14T03:19:36;100722.88;;;6.50;66.03
33506;BME280;19843;51.040;13.782;2024-02-14T03:22:05;100720.13;;;6.78;65.17
33506;BME280;19843;51.040;13.782;2024-02-14T03:24:35;100721.06;;;6.13;67.25
33506;BME280;19843;51.040;13.782;2024-02-14T03:27:03;100722.50;;;6.57;66.29
33506;BME280;19843;51.040;13.782;2024-02-14T03:29:32;100719.50;;;6.53;66.15
33506;BME280;19843;51.040;13.782;2024-02-14T03:32:03;100713.75;;;6.63;65.80
33506;BME280;19843;51.040;13.782;2024-02-14T03:34:31;100717.25;;;6.55;65.41
33506;BME280;19843;51.040;13.782;2024-02-14T03:37:00;100713.97;;;6.53;65.69
33506;BME280;19843;51.040;13.782;2024-02-14T03:39:28;100718.56;;;6.44;66.60
33506;BME280;19843;51.040;13.782;2024-02-14T03:41:57;100713.97;;;6.67;65.80
33506;BME280;19843;51.040;13.782;2024-02-14T03:44:27;100716.25;;;6.65;65.41
33506;BME280;19843;51.040;13.782;2024-02-14T03:46:55;100721.13;;;6.54;65.97
33506;BME280;19843;51.040;13.782;2024-02-14T03:49:24;100715.78;;;6.44;66.44
33506;BME280;19843;51.040;13.782;2024-02-14T03:51:52;100706.66;;;6.57;65.99
33506;BME280;19843;51.040;13.782;2024-02-14T03:54:21;100711.72;;;6.83;65.02
33506;BME280;19843;51.040;13.782;2024-02-14T03:56:49;100709.44;;;6.57;65.62
33506;BME280;19843;51.040;13.782;2024-02-14T03:59:17;100714.38;;;6.88;64.77
33506;BME280;19843;51.040;13.782;2024-02-14T04:01:51;100708.84;;;6.88;64.78
33506;BME280;19843;51.040;13.782;2024-02-14T04:04:19;100710.16;;;6.63;66.09
33506;BME280;19843;51.040;13.782;2024-02-14T04:06:48;100703.22;;;6.79;64.97
33506;BME280;19843;51.040;13.782;2024-02-14T04:09:15;100704.84;;;7.08;64.43
33506;BME280;19843;51.040;13.782;2024-02-14T04:11:43;100689.19;;;7.12;64.18
33506;BME280;19843;51.040;13.782;2024-02-14T04:14:11;100701.25;;;6.93;64.91
33506;BME280;19843;51.040;13.782;2024-02-14T04:16:38;100682.00;;;6.97;64.82
33506;BME280;19843;51.040;13.782;2024-02-14T04:19:06;100689.72;;;6.86;64.80
33506;BME280;19843;51.040;13.782;2024-02-14T04:21:35;100691.69;;;6.86;64.98
33506;BME280;19843;51.040;13.782;2024-02-14T04:24:04;100685.19;;;7.04;64.60
33506;BME280;19843;51.040;13.782;2024-02-14T04:26:33;100688.56;;;7.15;64.37
33506;BME280;19843;51.040;13.782;2024-02-14T04:29:01;100689.03;;;7.31;63.89
33506;BME280;19843;51.040;13.782;2024-02-14T04:31:28;100681.16;;;7.10;64.06
33506;BME280;19843;51.040;13.782;2024-02-14T04:33:58;100688.06;;;7.13;64.15
33506;BME280;19843;51.040;13.782;2024-02-14T04:36:25;100694.72;;;7.12;64.16
33506;BME280;19843;51.040;13.782;2024-02-14T04:38:53;100694.06;;;7.42;63.48
33506;BME280;19843;51.040;13.782;2024-02-14T04:41:23;100697.94;;;6.91;65.33
33506;BME280;19843;51.040;13.782;2024-02-14T04:43:51;100689.72;;;6.86;65.09
33506;BME280;19843;51.040;13.782;2024-02-14T04:46:18;100686.50;;;7.07;64.79
33506;BME280;19843;51.040;13.782;2024-02-14T04:48:46;100686.13;;;7.00;64.80
33506;BME280;19843;51.040;13.782;2024-02-14T04:51:14;100684.88;;;6.92;65.09
33506;BME280;19843;51.040;13.782;2024-02-14T04:53:42;100680.19;;;6.65;65.68
33506;BME280;19843;51.040;13.782;2024-02-14T04:56:09;100684.97;;;6.46;66.33
33506;BME280;19843;51.040;13.782;2024-02-14T04:58:38;100695.06;;;6.69;66.11
33506;BME280;19843;51.040;13.782;2024-02-14T05:01:05;100695.25;;;6.59;65.67
33506;BME280;19843;51.040;13.782;2024-02-14T05:03:33;100688.38;;;6.56;66.40
33506;BME280;19843;51.040;13.782;2024-02-14T05:06:03;100689.97;;;6.30;67.08
33506;BME280;19843;51.040;13.782;2024-02-14T05:08:32;100679.75;;;6.58;66.41
33506;BME280;19843;51.040;13.782;2024-02-14T05:10:59;100684.78;;;6.56;66.11
33506;BME280;19843;51.040;13.782;2024-02-14T05:13:27;100687.16;;;6.76;65.82
33506;BME280;19843;51.040;13.782;2024-02-14T05:15:56;100687.16;;;6.62;66.09
33506;BME280;19843;51.040;13.782;2024-02-14T05:18:23;100691.69;;;6.72;65.94
33506;BME280;19843;51.040;13.782;2024-02-14T05:20:51;100688.69;;;6.68;66.13
33506;BME280;19843;51.040;13.782;2024-02-14T05:23:19;100681.00;;;6.79;65.62
33506;BME280;19843;51.040;13.782;2024-02-14T05:25:46;100682.03;;;6.56;65.94
33506;BME280;19843;51.040;13.782;2024-02-14T05:28:14;100688.50;;;6.65;66.15
33506;BME280;19843;51.040;13.782;2024-02-14T05:30:44;100683.88;;;6.60;66.30
33506;BME280;19843;51.040;13.782;2024-02-14T05:33:13;100685.63;;;6.56;66.59
33506;BME280;19843;51.040;13.782;2024-02-14T05:35:41;100676.16;;;6.71;66.40
33506;BME280;19843;51.040;13.782;2024-02-14T05:38:08;100673.78;;;6.78;65.93
33506;BME280;19843;51.040;13.782;2024-02-14T05:40:36;100675.34;;;6.71;66.37
33506;BME280;19843;51.040;13.782;2024-02-14T05:43:04;100672.25;;;6.72;65.75
33506;BME280;19843;51.040;13.782;2024-02-14T05:45:33;100668.22;;;6.92;65.71
33506;BME280;19843;51.040;13.782;2024-02-14T05:48:00;100662.50;;;6.88;65.93
33506;BME280;19843;51.040;13.782;2024-02-14T05:50:30;100663.91;;;7.00;65.29
33506;BME280;19843;51.040;13.782;2024-02-14T05:52:57;100658.88;;;6.88;65.93
33506;BME280;19843;51.040;13.782;2024-02-14T05:55:25;100665.13;;;7.07;65.33
33506;BME280;19843;51.040;13.782;2024-02-14T05:57:53;100653.94;;;6.99;65.46
33506;BME280;19843;51.040;13.782;2024-02-14T06:00:20;100652.69;;;7.05;65.35
33506;BME280;19843;51.040;13.782;2024-02-14T06:02:53;100647.94;;;7.19;64.51
33506;BME280;19843;51.040;13.782;2024-02-14T06:05:21;100653.06;;;7.26;64.77
33506;BME280;19843;51.040;13.782;2024-02-14T06:07:50;100641.81;;;7.31;64.44
33506;BME280;19843;51.040;13.782;2024-02-14T06:10:18;100644.50;;;7.36;64.70
33506;BME280;19843;51.040;13.782;2024-02-14T06:12:45;100650.31;;;7.12;65.25
33506;BME280;19843;51.040;13.782;2024-02-14T06:15:14;100651.75;;;7.23;64.89
33506;BME280;19843;51.040;13.782;2024-02-14T06:17:42;100650.19;;;7.53;64.12
33506;BME280;19843;51.040;13.782;2024-02-14T06:20:11;100652.78;;;7.50;64.28
33506;BME280;19843;51.040;13.782;2024-02-14T06:22:39;100650.91;;;7.59;63.51
33506;BME280;19843;51.040;13.782;2024-02-14T06:25:20;100654.31;;;7.56;63.77
33506;BME280;19843;51.040;13.782;2024-02-14T06:27:47;100658.50;;;7.89;63.04
33506;BME280;19843;51.040;13.782;2024-02-14T06:30:15;100663.28;;;7.75;63.67
33506;BME280;19843;51.040;13.782;2024-02-14T06:32:44;100665.03;;;7.49;64.34
33506;BME280;19843;51.040;13.782;2024-02-14T06:35:12;100663.41;;;7.92;63.15
33506;BME280;19843;51.040;13.782;2024-02-14T06:37:42;100667.44;;;7.41;65.14
33506;BME280;19843;51.040;13.782;2024-02-14T06:40:22;100660.38;;;7.58;64.28
33506;BME280;19843;51.040;13.782;2024-02-14T06:42:50;100671.69;;;7.61;65.00
33506;BME280;19843;51.040;13.782;2024-02-14T06:45:18;100674.78;;;8.05;63.73
33506;BME280;19843;51.040;13.782;2024-02-14T06:47:45;100672.44;;;7.53;64.50
33506;BME280;19843;51.040;13.782;2024-02-14T06:50:13;100676.97;;;7.49;65.00
33506;BME280;19843;51.040;13.782;2024-02-14T06:52:41;100668.75;;;7.44;65.10
33506;BME280;19843;51.040;13.782;2024-02-14T06:55:08;100674.16;;;7.85;63.63
33506;BME280;19843;51.040;13.782;2024-02-14T06:57:39;100684.41;;;7.99;63.41
33506;BME280;19843;51.040;13.782;2024-02-14T07:00:07;100684.88;;;8.23;62.83
33506;BME280;19843;51.040;13.782;2024-02-14T07:02:36;100683.00;;;8.10;62.66
33506;BME280;19843;51.040;13.782;2024-02-14T07:05:04;100674.22;;;8.48;61.54
33506;BME280;19843;51.040;13.782;2024-02-14T07:07:33;100671.47;;;8.25;61.99
33506;BME280;19843;51.040;13.782;2024-02-14T07:10:01;100668.47;;;8.44;61.80
33506;BME280;19843;51.040;13.782;2024-02-14T07:12:32;100661.88;;;8.31;62.39
33506;BME280;19843;51.040;13.782;2024-02-14T07:15:04;100662.50;;;8.28;62.48
33506;BME280;19843;51.040;13.782;2024-02-14T07:17:33;100655.38;;;8.13;62.56
33506;BME280;19843;51.040;13.782;2024-02-14T07:20:01;100655.91;;;8.46;61.97
33506;BME280;19843;51.040;13.782;2024-02-14T07:22:28;100642.97;;;7.88;63.83
33506;BME280;19843;51.040;13.782;2024-02-14T07:24:57;100641.47;;;8.44;62.12
33506;BME280;19843;51.040;13.782;2024-02-14T07:27:25;100645.88;;;8.77;61.70
33506;BME280;19843;51.040;13.782;2024-02-14T07:29:53;100654.41;;;8.80;61.49
33506;BME280;19843;51.040;13.782;2024-02-14T07:32:22;100649.00;;;8.84;61.57
33506;BME280;19843;51.040;13.782;2024-02-14T07:34:49;100643.94;;;8.86;61.32
33506;BME280;19843;51.040;13.782;2024-02-14T07:37:17;100640.88;;;8.56;61.68
33506;BME280;19843;51.040;13.782;2024-02-14T07:39:46;100641.72;;;8.34;62.65
33506;BME280;19843;51.040;13.782;2024-02-14T07:42:16;100648.13;;;8.66;61.73
33506;BME280;19843;51.040;13.782;2024-02-14T07:44:44;100638.06;;;8.96;60.79
33506;BME280;19843;51.040;13.782;2024-02-14T07:47:11;100639.53;;;8.93;60.30
33506;BME280;19843;51.040;13.782;2024-02-14T07:49:40;100635.13;;;9.01;59.91
33506;BME280;19843;51.040;13.782;2024-02-14T07:52:08;100619.56;;;9.09;60.54
33506;BME280;19843;51.040;13.782;2024-02-14T07:54:35;100618.53;;;8.87;60.95
33506;BME280;19843;51.040;13.782;2024-02-14T07:57:03;100621.06;;;9.32;60.33
33506;BME280;19843;51.040;13.782;2024-02-14T07:59:31;100616.16;;;9.64;58.87
33506;BME280;19843;51.040;13.782;2024-02-14T08:01:58;100624.66;;;9.76;58.38
33506;BME280;19843;51.040;13.782;2024-02-14T08:04:26;100618.78;;;9.69;58.85
33506;BME280;19843;51.040;13.782;2024-02-14T08:06:55;100605.34;;;9.45;59.57
33506;BME280;19843;51.040;13.782;2024-02-14T08:09:23;100601.38;;;9.20;59.72
33506;BME280;19843;51.040;13.782;2024-02-14T08:11:50;100605.00;;;9.64;59.13
33506;BME280;19843;51.040;13.782;2024-02-14T08:14:19;100600.19;;;9.90;58.79
33506;BME280;19843;51.040;13.782;2024-02-14T08:16:46;100601.72;;;9.53;58.87
33506;BME280;19843;51.040;13.782;2024-02-14T08:19:14;100609.00;;;10.10;57.60
33506;BME280;19843;51.040;13.782;2024-02-14T08:21:42;100606.09;;;9.97;57.42
33506;BME280;19843;51.040;13.782;2024-02-14T08:24:11;100602.41;;;9.41;59.11
33506;BME280;19843;51.040;13.782;2024-02-14T08:26:38;100595.66;;;9.60;59.07
33506;BME280;19843;51.040;13.782;2024-02-14T08:29:06;100593.94;;;10.49;57.26
33506;BME280;19843;51.040;13.782;2024-02-14T08:31:36;100594.59;;;10.08;57.84
33506;BME280;19843;51.040;13.782;2024-02-14T08:34:03;100602.47;;;10.52;56.99
33506;BME280;19843;51.040;13.782;2024-02-14T08:36:31;100596.31;;;10.30;57.21
33506;BME280;19843;51.040;13.782;2024-02-14T08:38:59;100586.84;;;10.31;57.20
33506;BME280;19843;51.040;13.782;2024-02-14T08:41:28;100581.75;;;10.15;58.50
33506;BME280;19843;51.040;13.782;2024-02-14T08:43:56;100576.84;;;10.59;57.61
33506;BME280;19843;51.040;13.782;2024-02-14T08:46:23;100572.34;;;10.37;57.78
33506;BME280;19843;51.040;13.782;2024-02-14T08:48:51;100575.44;;;9.97;58.90
33506;BME280;19843;51.040;13.782;2024-02-14T08:51:20;100567.16;;;10.57;58.11
33506;BME280;19843;51.040;13.782;2024-02-14T08:53:49;100564.94;;;10.71;57.27
33506;BME280;19843;51.040;13.782;2024-02-14T08:56:21;100573.88;;;10.85;57.16
33506;BME280;19843;51.040;13.782;2024-02-14T08:58:50;100581.88;;;10.66;57.45
33506;BME280;19843;51.040;13.782;2024-02-14T09:01:18;100580.72;;;10.37;58.41
33506;BME280;19843;51.040;13.782;2024-02-14T09:03:47;100573.72;;;10.82;57.71
33506;BME280;19843;51.040;13.782;2024-02-14T09:06:17;100585.50;;;10.66;57.65
33506;BME280;19843;51.040;13.782;2024-02-14T09:08:45;100583.59;;;11.09;56.49
33506;BME280;19843;51.040;13.782;2024-02-14T09:11:13;100584.13;;;11.23;56.39
33506;BME280;19843;51.040;13.782;2024-02-14T09:13:41;100577.22;;;11.62;55.55
33506;BME280;19843;51.040;13.782;2024-02-14T09:16:10;100574.31;;;11.59;55.26
33506;BME280;19843;51.040;13.782;2024-02-14T09:18:38;100580.75;;;11.71;55.19
33506;BME280;19843;51.040;13.782;2024-02-14T09:21:06;100580.97;;;11.87;54.64
33506;BME280;19843;51.040;13.782;2024-02-14T09:23:35;100576.06;;;11.63;55.53
33506;BME280;19843;51.040;13.782;2024-02-14T09:26:05;100582.19;;;12.23;54.14
33506;BME280;19843;51.040;13.782;2024-02-14T09:28:33;100579.66;;;12.30;53.88
33506;BME280;19843;51.040;13.782;2024-02-14T09:31:01;100588.19;;;12.00;55.04
33506;BME280;19843;51.040;13.782;2024-02-14T09:33:32;100592.91;;;12.09;54.39
33506;BME280;19843;51.040;13.782;2024-02-14T09:36:00;100579.06;;;11.58;55.50
33506;BME280;19843;51.040;13.782;2024-02-14T09:38:27;100587.78;;;12.23;53.81
33506;BME280;19843;51.040;13.782;2024-02-14T09:40:58;100583.41;;;12.01;54.20
33506;BME280;19843;51.040;13.782;2024-02-14T09:43:32;100589.75;;;12.10;54.22
33506;BME280;19843;51.040;13.782;2024-02-14T09:46:02;100586.44;;;11.96;54.34
33506;BME280;19843;51.040;13.782;2024-02-14T09:48:32;100588.63;;;12.36;53.91
33506;BME280;19843;51.040;13.782;2024-02-14T09:51:00;100590.88;;;12.54;53.38
33506;BME280;19843;51.040;13.782;2024-02-14T09:53:29;100594.66;;;12.13;54.01
33506;BME280;19843;51.040;13.782;2024-02-14T09:55:57;100590.84;;;12.30;53.97
33506;BME280;19843;51.040;13.782;2024-02-14T09:58:26;100597.38;;;12.46;53.83
33506;BME280;19843;51.040;13.782;2024-02-14T10:00:54;100587.25;;;12.54;53.98
33506;BME280;19843;51.040;13.782;2024-02-14T10:03:22;100585.59;;;12.65;53.82
33506;BME280;19843;51.040;13.782;2024-02-14T10:05:51;100576.38;;;13.01;52.75
33506;BME280;19843;51.040;13.782;2024-02-14T10:08:19;100588.88;;;12.79;53.46
33506;BME280;19843;51.040;13.782;2024-02-14T10:10:46;100582.22;;;12.47;54.01
33506;BME280;19843;51.040;13.782;2024-02-14T10:13:18;100589.94;;;12.50;54.55
33506;BME280;19843;51.040;13.782;2024-02-14T10:15:46;100592.25;;;12.48;55.25
33506;BME280;19843;51.040;13.782;2024-02-14T10:18:14;100587.81;;;12.35;55.29
33506;BME280;19843;51.040;13.782;2024-02-14T10:20:53;100586.66;;;12.36;55.13
33506;BME280;19843;51.040;13.782;2024-02-14T10:23:21;100597.13;;;12.27;55.13
33506;BME280;19843;51.040;13.782;2024-02-14T10:25:50;100593.53;;;12.51;54.93
33506;BME280;19843;51.040;13.782;2024-02-14T10:28:17;100593.53;;;12.51;54.64
33506;BME280;19843;51.040;13.782;2024-02-14T10:30:47;100592.69;;;12.26;55.74
33506;BME280;19843;51.040;13.782;2024-02-14T10:33:16;100590.16;;;12.45;54.98
33506;BME280;19843;51.040;13.782;2024-02-14T10:35:54;100582.19;;;12.11;55.54
33506;BME280;19843;51.040;13.782;2024-02-14T10:38:30;100583.59;;;12.29;55.43
33506;BME280;19843;51.040;13.782;2024-02-14T10:40:59;100582.47;;;12.54;54.93
33506;BME280;19843;51.040;13.782;2024-02-14T10:43:28;100584.78;;;12.65;55.13
33506;BME280;19843;51.040;13.782;2024-02-14T10:45:56;100583.28;;;12.55;55.22
33506;BME280;19843;51.040;13.782;2024-02-14T10:48:28;100580.72;;;12.50;55.00
33506;BME280;19843;51.040;13.782;2024-02-14T10:50:57;100587.13;;;12.50;55.56
33506;BME280;19843;51.040;13.782;2024-02-14T10:53:25;100580.13;;;12.56;56.10
33506;BME280;19843;51.040;13.782;2024-02-14T10:55:57;100568.31;;;12.88;55.80
33506;BME280;19843;51.040;13.782;2024-02-14T10:58:26;100574.84;;;12.79;56.36
33506;BME280;19843;51.040;13.782;2024-02-14T11:00:56;100562.34;;;12.89;56.25
33506;BME280;19843;51.040;13.782;2024-02-14T11:03:24;100566.72;;;11.59;58.92
33506;BME280;19843;51.040;13.782;2024-02-14T11:05:53;100565.34;;;11.98;58.43
33506;BME280;19843;51.040;13.782;2024-02-14T11:08:29;100567.75;;;12.21;58.10
33506;BME280;19843;51.040;13.782;2024-02-14T11:10:59;100568.06;;;11.74;58.55
33506;BME280;19843;51.040;13.782;2024-02-14T11:13:28;100564.34;;;12.76;56.17
33506;BME280;19843;51.040;13.782;2024-02-14T11:15:59;100547.91;;;12.87;56.28
33506;BME280;19843;51.040;13.782;2024-02-14T11:18:28;100546.75;;;12.64;56.54
33506;BME280;19843;51.040;13.782;2024-02-14T11:20:57;100547.44;;;11.78;58.78
33506;BME280;19843;51.040;13.782;2024-02-14T11:23:25;100548.25;;;11.79;58.80
33506;BME280;19843;51.040;13.782;2024-02-14T11:26:00;100559.00;;;12.35;57.58
33506;BME280;19843;51.040;13.782;2024-02-14T11:28:28;100555.50;;;13.39;55.19
33506;BME280;19843;51.040;13.782;2024-02-14T11:31:00;100543.56;;;13.86;53.84
33506;BME280;19843;51.040;13.782;2024-02-14T11:33:30;100539.88;;;13.82;53.97
33506;BME280;19843;51.040;13.782;2024-02-14T11:35:58;100536.69;;;13.83;54.43
33506;BME280;19843;51.040;13.782;2024-02-14T11:38:35;100533.72;;;12.96;56.31
33506;BME280;19843;51.040;13.782;2024-02-14T11:41:04;100536.59;;;13.24;55.57
33506;BME280;19843;51.040;13.782;2024-02-14T11:43:32;100546.66;;;13.13;56.28
33506;BME280;19843;51.040;13.782;2024-02-14T11:46:00;100542.06;;;13.61;54.66
33506;BME280;19843;51.040;13.782;2024-02-14T11:48:28;100542.25;;;14.12;54.34
33506;BME280;19843;51.040;13.782;2024-02-14T11:50:56;100542.03;;;14.48;53.42
33506;BME280;19843;51.040;13.782;2024-02-14T11:53:23;100545.19;;;14.63;53.06
33506;BME280;19843;51.040;13.782;2024-02-14T11:55:51;100535.91;;;14.62;53.21
33506;BME280;19843;51.040;13.782;2024-02-14T11:58:20;100541.88;;;13.53;55.31
33506;BME280;19843;51.040;13.782;2024-02-14T12:00:47;100550.50;;;14.20;54.24
33506;BME280;19843;51.040;13.782;2024-02-14T12:03:18;100546.50;;;13.62;55.78
33506;BME280;19843;51.040;13.782;2024-02-14T12:05:48;100550.94;;;12.82;56.72
33506;BME280;19843;51.040;13.782;2024-02-14T12:08:17;100559.44;;;12.86;57.08
33506;BME280;19843;51.040;13.782;2024-02-14T12:10:46;100550.19;;;13.50;56.38
33506;BME280;19843;51.040;13.782;2024-02-14T12:13:19;100552.84;;;13.18;57.20
33506;BME280;19843;51.040;13.782;2024-02-14T12:15:49;100553.66;;;13.59;55.65
33506;BME280;19843;51.040;13.782;2024-02-14T12:18:20;100557.94;;;13.41;56.50
33506;BME280;19843;51.040;13.782;2024-02-14T12:20:48;100545.81;;;13.80;54.84
33506;BME280;19843;51.040;13.782;2024-02-14T12:23:22;100544.78;;;13.57;55.37
33506;BME280;19843;51.040;13.782;2024-02-14T12:25:52;100550.50;;;13.32;56.65
33506;BME280;19843;51.040;13.782;2024-02-14T12:28:20;100551.47;;;13.12;58.40
33506;BME280;19843;51.040;13.782;2024-02-14T12:30:51;100553.19;;;13.29;57.67
33506;BME280;19843;51.040;13.782;2024-02-14T12:33:23;100545.28;;;13.47;56.79
33506;BME280;19843;51.040;13.782;2024-02-14T12:35:53;100543.78;;;14.09;55.26
33506;BME280;19843;51.040;13.782;2024-02-14T12:38:22;100545.78;;;14.08;56.06
33506;BME280;19843;51.040;13.782;2024-02-14T12:40:50;100540.19;;;14.24;55.53
33506;BME280;19843;51.040;13.782;2024-02-14T12:43:20;100539.34;;;14.24;55.54
33506;BME280;19843;51.040;13.782;2024-02-14T12:45:49;100542.97;;;14.40;55.44
33506;BME280;19843;51.040;13.782;2024-02-14T12:48:23;100547.94;;;14.47;55.60
33506;BME280;19843;51.040;13.782;2024-02-14T12:50:53;100532.66;;;14.28;56.25
33506;BME280;19843;51.040;13.782;2024-02-14T12:53:21;100537.75;;;14.39;56.35